Time;durP1;ratioP1;P1;durP2;ratioP2;P2;SDS_P1;SDS_P2;PMS_P1;PMS_P2;Temp;Humidity;BMP_temperature;BMP_pressure;BME280_temperature;BME280_humidity;BME280_pressure;Samples;Min_cycle;Max_cycle;Signal;HPM_P1;HPM_P2
2021/11/06 00:03:10;;;;;;;29.10;16.97;;;;;;;6.58;79.56;99988.83;4499821;77;21599;-82
2021/11/06 00:09:13;;;;;;;27.55;16.70;;;;;;;6.62;79.59;99996.02;4500741;77;21037;-82
2021/11/06 00:15:14;;;;;;;29.25;16.85;;;;;;;6.59;79.47;99993.95;4500065;77;21034;-82
2021/11/06 00:28:37;;;;;;;31.07;20.23;;;;;;;6.34;79.39;100014.61;4481861;78;21002;-82
2021/11/06 00:34:38;;;;;;;29.70;18.60;;;;;;;6.15;79.52;100028.33;4490520;78;20954;-82
2021/11/06 00:40:40;;;;;;;35.15;19.15;;;;;;;6.08;79.67;100026.63;4500514;77;21073;-83
2021/11/06 00:46:43;;;;;;;30.97;19.20;;;;;;;6.05;79.79;100033.52;4502940;78;21022;-82
2021/11/06 00:52:46;;;;;;;35.55;19.52;;;;;;;6.04;80.00;100037.37;4507637;78;21003;-82
2021/11/06 00:58:48;;;;;;;35.23;21.15;;;;;;;6.08;80.27;100037.50;4493403;78;21109;-83
2021/11/06 01:04:49;;;;;;;38.13;22.00;;;;;;;6.14;80.43;100031.59;4495110;77;20968;-82
2021/11/06 01:10:50;;;;;;;33.78;19.67;;;;;;;6.16;80.57;100035.34;4508563;77;21047;-82
2021/11/06 01:16:51;;;;;;;34.45;19.85;;;;;;;6.10;80.61;100040.71;4511696;78;21080;-82
2021/11/06 01:22:53;;;;;;;31.00;18.55;;;;;;;6.01;80.33;100041.28;4500531;77;21004;-82
2021/11/06 01:28:54;;;;;;;36.13;21.12;;;;;;;5.69;80.40;100041.13;4515527;76;21511;-82
2021/11/06 01:34:55;;;;;;;36.10;19.48;;;;;;;5.48;81.16;100037.40;4562006;76;21508;-82
2021/11/06 01:40:59;;;;;;;29.07;18.00;;;;;;;5.47;81.47;100037.72;4534208;76;21000;-82
2021/11/06 01:54:05;;;;;;;22.95;15.53;;;;;;;5.63;82.31;100042.95;4544909;76;21916;-82
2021/11/06 02:00:17;;;;;;;26.80;15.45;;;;;;;5.73;82.05;100039.95;4555609;76;20974;-82
2021/11/06 02:06:18;;;;;;;26.73;16.32;;;;;;;5.70;82.25;100040.00;4538369;76;21006;-82
2021/11/06 02:12:19;;;;;;;30.65;18.75;;;;;;;5.65;82.07;100042.09;4551577;76;20988;-82
2021/11/06 02:18:21;;;;;;;28.25;18.50;;;;;;;5.55;82.64;100043.19;4539267;76;21013;-82
2021/11/06 02:24:25;;;;;;;29.42;18.73;;;;;;;5.54;82.68;100038.88;4553995;76;21004;-82
2021/11/06 02:30:26;;;;;;;31.12;17.05;;;;;;;5.56;82.62;100037.98;4548287;76;22236;-82
2021/11/06 02:36:27;;;;;;;26.57;16.32;;;;;;;5.61;82.67;100039.75;4557688;76;20992;-82
2021/11/06 02:42:29;;;;;;;23.00;15.50;;;;;;;5.56;82.83;100035.84;4497999;76;21010;-82
2021/11/06 02:48:30;;;;;;;22.98;14.38;;;;;;;5.52;82.97;100043.81;4488919;76;21019;-83
2021/11/06 02:54:32;;;;;;;23.18;15.83;;;;;;;5.55;83.23;100043.19;4503546;78;21018;-83
2021/11/06 03:00:34;;;;;;;21.90;14.60;;;;;;;5.53;83.17;100047.34;4500828;78;20956;-82
2021/11/06 03:06:36;;;;;;;22.60;14.35;;;;;;;5.49;82.83;100049.08;4502828;78;20991;-82
2021/11/06 03:12:38;;;;;;;25.08;15.13;;;;;;;5.43;83.04;100051.16;4354828;77;21065;-83
2021/11/06 03:18:39;;;;;;;26.97;15.78;;;;;;;5.30;83.27;100058.04;4267706;81;21015;-83
2021/11/06 03:24:40;;;;;;;25.40;14.93;;;;;;;5.30;83.54;100064.83;4271898;81;21019;-82
2021/11/06 03:30:41;;;;;;;28.95;15.95;;;;;;;5.22;83.63;100060.97;4271921;81;21574;-82
2021/11/06 03:36:45;;;;;;;26.75;15.35;;;;;;;5.13;83.78;100064.22;4269469;81;21087;-82
2021/11/06 03:42:47;;;;;;;25.65;15.25;;;;;;;5.07;84.05;100068.73;4266054;81;21055;-82
2021/11/06 03:48:48;;;;;;;24.52;14.45;;;;;;;5.00;83.96;100069.17;4282880;79;21114;-82
2021/11/06 07:02:53;;;;;;;12.68;8.83;;;;;;;5.68;87.05;100211.24;4673888;74;22897;-82
2021/11/06 07:09:10;;;;;;;14.43;8.23;;;;;;;5.85;86.92;100220.84;4586563;75;21545;-82
2021/11/06 07:15:12;;;;;;;17.87;8.85;;;;;;;6.04;86.21;100231.72;4583499;75;21554;-83
2021/11/06 07:21:13;;;;;;;14.60;9.45;;;;;;;6.23;85.80;100228.73;4587422;75;20964;-82
2021/11/06 07:27:16;;;;;;;15.80;9.65;;;;;;;6.40;85.62;100233.63;4599967;75;20999;-82
2021/11/06 07:33:17;;;;;;;18.55;11.15;;;;;;;6.63;85.37;100236.22;4585190;75;21562;-82
2021/11/06 07:39:18;;;;;;;16.85;10.05;;;;;;;6.81;84.85;100240.02;4599293;75;21070;-82
2021/11/06 07:45:20;;;;;;;19.45;10.08;;;;;;;6.95;84.52;100228.41;4593861;75;21539;-83
2021/11/06 07:53:01;;;;;;;13.65;9.00;;;;;;;7.28;84.70;100240.36;4677052;74;22402;-82
2021/11/06 07:59:03;;;;;;;18.02;11.28;;;;;;;7.55;84.18;100242.72;4577334;76;21011;-82
2021/11/06 08:05:08;;;;;;;12.50;7.78;;;;;;;7.74;84.03;100249.95;4576147;76;21062;-82
2021/11/06 08:11:10;;;;;;;14.55;8.23;;;;;;;8.12;83.78;100254.61;4575651;76;21029;-82
2021/11/06 08:17:13;;;;;;;16.37;8.58;;;;;;;9.26;84.43;100255.36;4555089;76;21641;-83
2021/11/06 08:23:14;;;;;;;11.68;8.30;;;;;;;10.62;83.99;100254.30;4547256;76;21011;-83
2021/11/06 08:29:16;;;;;;;15.95;7.90;;;;;;;11.86;82.63;100266.30;4569916;76;21025;-83
2021/11/06 08:35:18;;;;;;;12.20;7.92;;;;;;;12.70;80.84;100260.11;4547701;76;22178;-84
2021/11/06 08:41:20;;;;;;;12.63;6.10;;;;;;;13.19;79.24;100263.17;4554581;76;21345;-84
2021/11/06 08:47:21;;;;;;;8.55;5.58;;;;;;;13.83;78.49;100277.00;4541362;76;21061;-84
2021/11/06 08:53:23;;;;;;;8.50;5.35;;;;;;;14.12;76.15;100276.36;4569984;76;21007;-83
2021/11/06 08:59:25;;;;;;;10.30;5.25;;;;;;;14.59;75.53;100284.23;4537257;76;21689;-83
2021/11/06 09:05:26;;;;;;;7.97;5.62;;;;;;;14.94;74.31;100282.78;4523028;76;21002;-85
2021/11/06 09:11:28;;;;;;;7.45;5.12;;;;;;;15.64;73.88;100274.03;4555604;76;20990;-83
2021/11/06 09:17:30;;;;;;;4.95;3.80;;;;;;;15.79;71.94;100279.12;4535073;76;21003;-83
2021/11/06 09:23:31;;;;;;;6.53;4.50;;;;;;;16.26;70.68;100281.95;4537984;76;21014;-84
2021/11/06 09:29:32;;;;;;;6.70;4.17;;;;;;;16.77;69.05;100278.60;4536584;76;21050;-85
2021/11/06 09:35:34;;;;;;;4.87;2.62;;;;;;;16.66;66.19;100275.58;4537001;76;21653;-84
2021/11/06 09:41:38;;;;;;;4.45;2.42;;;;;;;16.80;65.15;100281.98;4571181;76;21019;-85
2021/11/06 09:47:43;;;;;;;2.58;2.00;;;;;;;16.76;62.72;100281.17;4543011;76;21030;-84
2021/11/06 09:53:50;;;;;;;2.98;2.00;;;;;;;16.14;61.68;100275.91;4574744;76;21024;-84
2021/11/06 09:59:51;;;;;;;4.43;2.70;;;;;;;16.16;61.22;100277.11;4542902;76;21499;-83
2021/11/06 10:05:57;;;;;;;4.20;2.52;;;;;;;16.63;60.02;100278.51;4548547;76;21037;-84
2021/11/06 10:12:00;;;;;;;2.40;1.77;;;;;;;16.90;59.45;100267.44;4542079;76;21147;-83
2021/11/06 10:18:15;;;;;;;6.37;2.55;;;;;;;16.96;57.84;100252.05;4556586;76;21508;-84
2021/11/06 10:24:23;;;;;;;14.30;3.22;;;;;;;16.88;57.11;100251.03;4554982;76;21056;-85
2021/11/06 10:30:28;;;;;;;4.33;2.08;;;;;;;16.48;55.41;100238.13;4536061;76;21056;-84
2021/11/06 10:36:30;;;;;;;5.33;2.40;;;;;;;15.91;52.81;100236.65;4557366;76;21090;-85
2021/11/06 10:42:51;;;;;;;3.40;1.75;;;;;;;15.96;54.38;100215.59;4556470;76;21572;-83
2021/11/06 10:48:53;;;;;;;4.60;2.17;;;;;;;15.79;53.53;100217.58;4536362;76;21093;-83
2021/11/06 10:55:08;;;;;;;6.28;2.20;;;;;;;15.39;52.90;100216.39;4547131;76;21081;-84
2021/11/06 11:01:12;;;;;;;3.55;2.22;;;;;;;15.26;52.83;100205.97;4548532;76;21003;-83
2021/11/06 11:07:15;;;;;;;2.42;1.72;;;;;;;15.26;52.53;100203.21;4547140;76;21574;-83
2021/11/06 11:13:21;;;;;;;4.22;2.25;;;;;;;15.06;51.67;100198.46;4543096;76;21584;-83
2021/11/06 11:19:40;;;;;;;4.92;2.10;;;;;;;14.60;51.53;100196.25;4525525;76;21069;-84
2021/11/06 11:25:43;;;;;;;4.40;2.22;;;;;;;14.37;51.12;100192.20;4535676;75;21089;-82
2021/11/06 11:31:45;;;;;;;4.33;2.30;;;;;;;14.18;50.55;100187.56;4539728;76;20985;-81
2021/11/06 11:37:47;;;;;;;4.22;1.87;;;;;;;13.75;50.39;100178.98;4509185;76;21021;-81
2021/11/06 11:44:34;;;;;;;3.55;1.90;;;;;;;13.42;49.88;100171.91;4570066;76;21021;-81
2021/11/06 11:51:44;;;;;;;2.92;1.65;;;;;;;13.14;49.92;100170.78;4546626;76;21020;-81
2021/11/06 11:58:09;;;;;;;2.08;1.40;;;;;;;12.92;50.85;100160.48;4560813;76;21030;-81
2021/11/06 12:04:18;;;;;;;2.05;1.65;;;;;;;12.74;50.80;100159.34;4553513;76;21091;-81
2021/11/06 12:10:34;;;;;;;3.75;2.00;;;;;;;12.40;50.74;100169.80;4561690;76;21011;-81
2021/11/06 12:16:46;;;;;;;4.65;2.25;;;;;;;12.26;50.50;100151.03;4528719;76;21463;-81
2021/11/06 12:30:32;;;;;;;4.00;2.20;;;;;;;11.97;51.32;100139.77;4258205;82;21530;-85
2021/11/06 12:36:43;;;;;;;4.62;2.85;;;;;;;11.93;51.32;100138.90;4272036;82;21316;-82
2021/11/06 12:43:16;;;;;;;4.53;3.30;;;;;;;11.74;51.85;100142.37;4256841;82;21291;-83
2021/11/06 12:49:25;;;;;;;4.33;2.58;;;;;;;11.70;51.49;100128.35;4250620;82;21026;-83
2021/11/06 12:55:27;;;;;;;5.15;2.80;;;;;;;11.68;51.90;100135.53;4293868;82;21599;-83
2021/11/06 13:01:31;;;;;;;4.62;2.55;;;;;;;11.60;51.82;100128.84;4266160;82;21019;-82
2021/11/06 13:07:34;;;;;;;5.30;3.05;;;;;;;11.46;52.03;100123.00;4275742;82;20991;-84
2021/11/06 13:13:35;;;;;;;6.62;2.20;;;;;;;11.30;52.37;100114.77;4173580;84;21539;-83
2021/11/06 13:19:58;;;;;;;2.22;1.60;;;;;;;11.23;52.40;100113.20;4269082;82;21023;-83
2021/11/06 13:26:00;;;;;;;3.10;1.90;;;;;;;11.13;52.32;100111.77;4270442;80;21055;-83
2021/11/06 13:32:04;;;;;;;4.62;2.15;;;;;;;10.97;52.42;100095.09;4274192;82;21012;-82
2021/11/06 13:38:23;;;;;;;4.17;2.08;;;;;;;10.85;52.50;100095.17;4304446;82;21057;-82
2021/11/06 13:44:26;;;;;;;6.37;3.40;;;;;;;10.75;52.67;100091.55;4298203;82;21091;-82
2021/11/06 13:50:28;;;;;;;5.85;2.83;;;;;;;10.63;52.94;100088.28;4264492;82;21023;-82
2021/11/06 13:56:49;;;;;;;8.68;3.22;;;;;;;10.53;53.28;100079.78;4286449;82;21657;-83
2021/11/06 14:02:53;;;;;;;5.75;3.40;;;;;;;10.47;53.28;100079.25;4206252;82;21051;-82
2021/11/06 14:09:07;;;;;;;6.00;3.55;;;;;;;10.37;53.41;100076.19;4286719;82;21038;-83
2021/11/06 14:15:26;;;;;;;5.20;3.25;;;;;;;10.28;53.76;100074.97;4247165;82;21050;-82
2021/11/06 14:21:35;;;;;;;8.03;3.70;;;;;;;10.18;53.96;100066.46;4309576;82;21073;-82
2021/11/06 14:27:31;;;;;;;8.90;3.40;;;;;;;10.05;54.29;100065.66;4291118;82;21013;-82
2021/11/06 14:33:39;;;;;;;9.90;4.17;;;;;;;9.96;54.70;100067.70;4176331;84;21077;-82
2021/11/06 14:39:57;;;;;;;7.58;3.83;;;;;;;9.86;55.02;100066.02;4301196;82;21871;-82
2021/11/06 14:46:00;;;;;;;6.70;3.92;;;;;;;9.71;55.23;100059.31;4302721;82;21004;-83
2021/11/06 14:52:11;;;;;;;9.75;4.05;;;;;;;9.55;55.58;100072.09;4306841;81;21544;-83
2021/11/06 14:58:12;;;;;;;10.95;5.70;;;;;;;9.34;55.92;100070.03;4287311;82;21027;-82
2021/11/06 15:04:14;;;;;;;14.35;4.85;;;;;;;9.09;56.30;100082.06;4268664;82;21578;-82
2021/11/06 15:10:16;;;;;;;9.43;4.97;;;;;;;8.92;56.89;100078.97;4297747;82;21539;-82
2021/11/06 15:16:34;;;;;;;19.17;6.37;;;;;;;8.76;57.10;100073.91;4309725;82;21431;-82
2021/11/06 15:22:33;;;;;;;17.92;6.60;;;;;;;8.49;57.21;100067.66;4304974;82;20974;-82
2021/11/06 15:28:35;;;;;;;11.63;6.08;;;;;;;8.17;58.03;100068.41;4287949;82;21099;-83
2021/11/06 15:34:36;;;;;;;14.07;7.30;;;;;;;8.01;58.20;100059.22;4268913;82;20964;-82
2021/11/06 15:40:38;;;;;;;17.42;7.78;;;;;;;7.90;58.54;100064.27;4296707;82;21183;-82
2021/11/06 15:46:40;;;;;;;13.85;7.85;;;;;;;7.77;58.96;100060.41;4293488;82;21063;-82
2021/11/06 15:52:41;;;;;;;27.48;12.70;;;;;;;7.58;59.33;100069.61;4290712;82;21055;-82
2021/11/06 15:58:44;;;;;;;25.12;13.88;;;;;;;7.35;59.67;100065.54;4260553;82;20990;-82
2021/11/06 16:04:45;;;;;;;34.85;18.05;;;;;;;7.15;60.26;100063.55;4278988;82;21166;-81
2021/11/06 16:10:47;;;;;;;35.52;18.40;;;;;;;6.93;60.60;100060.51;4262691;82;21428;-82
2021/11/06 16:16:48;;;;;;;34.65;18.42;;;;;;;6.67;61.04;100068.50;4285819;82;21072;-81
2021/11/06 16:22:57;;;;;;;38.00;18.90;;;;;;;6.40;61.53;100066.94;4278222;82;21014;-81
2021/11/06 16:28:59;;;;;;;38.60;19.27;;;;;;;6.22;61.86;100072.94;4269974;82;21650;-81
2021/11/06 16:35:01;;;;;;;42.58;22.67;;;;;;;5.99;62.28;100082.37;4271026;82;21016;-83
2021/11/06 16:41:05;;;;;;;48.38;25.43;;;;;;;5.79;62.83;100083.50;4281782;82;21011;-81
2021/11/06 16:47:06;;;;;;;38.65;20.10;;;;;;;5.70;63.20;100090.27;4268588;82;21087;-82
2021/11/06 16:53:09;;;;;;;64.72;28.55;;;;;;;5.54;64.22;100095.91;4244692;82;21063;-81
2021/11/06 16:59:11;;;;;;;64.25;30.15;;;;;;;5.39;64.58;100099.59;4219934;83;21007;-81
2021/11/06 17:05:15;;;;;;;61.55;29.60;;;;;;;5.22;64.95;100098.16;4224873;83;21039;-81
2021/11/06 17:11:18;;;;;;;52.40;26.23;;;;;;;5.01;65.28;100098.48;4107066;85;21043;-82
2021/11/06 17:17:21;;;;;;;51.10;26.02;;;;;;;4.79;65.42;100107.46;4198373;84;21043;-82
2021/11/06 17:23:24;;;;;;;58.05;26.90;;;;;;;4.65;66.13;100106.16;4133177;85;21000;-81
2021/11/06 17:29:26;;;;;;;68.97;32.70;;;;;;;4.47;66.57;100107.16;4181239;84;21079;-83
2021/11/06 17:35:28;;;;;;;49.73;27.05;;;;;;;4.27;66.28;100106.28;4194065;84;21507;-81
2021/11/06 17:41:30;;;;;;;63.30;27.93;;;;;;;4.18;67.95;100106.74;4223318;82;21031;-82
2021/11/06 17:47:31;;;;;;;74.95;34.35;;;;;;;4.13;68.06;100106.88;4124576;85;21015;-81
2021/11/06 17:53:49;;;;;;;54.15;26.50;;;;;;;4.04;68.20;100105.20;4176538;84;21031;-81
2021/11/06 17:59:45;;;;;;;89.90;43.25;;;;;;;3.98;68.67;100099.62;4160187;84;21032;-81
2021/11/06 18:05:47;;;;;;;83.27;41.20;;;;;;;3.83;68.67;100099.97;4269642;82;21051;-81
2021/11/06 18:11:52;;;;;;;85.80;41.33;;;;;;;3.68;68.86;100092.95;4260116;82;21523;-81
2021/11/06 18:17:54;;;;;;;92.70;42.23;;;;;;;3.57;69.29;100094.84;4254908;82;21051;-81
2021/11/06 18:23:56;;;;;;;91.28;43.95;;;;;;;3.38;69.47;100081.42;4283771;82;21573;-81
2021/11/06 18:29:59;;;;;;;82.25;39.23;;;;;;;3.16;69.66;100075.34;4171545;83;22012;-81
2021/11/06 18:36:00;;;;;;;94.15;44.83;;;;;;;3.02;70.34;100061.58;4114549;86;21005;-81
2021/11/06 18:42:03;;;;;;;90.60;42.55;;;;;;;2.83;70.18;100054.89;4271879;82;21009;-81
2021/11/06 18:48:51;;;;;;;;;;;;;;;;;;;;;
2021/11/06 18:54:17;;;;;;;100.87;44.23;;;;;;;2.63;70.93;100056.59;4074357;85;21427;-82
2021/11/06 19:00:19;;;;;;;91.85;41.40;;;;;;;2.49;71.87;100054.40;4118707;85;21515;-81
2021/11/06 19:06:20;;;;;;;102.15;47.53;;;;;;;2.81;72.49;100063.03;4114908;85;21063;-81
2021/11/06 19:12:22;;;;;;;98.87;45.08;;;;;;;2.68;71.45;100076.78;4109698;85;21051;-81
2021/11/06 19:25:43;;;;;;;116.57;51.70;;;;;;;2.37;71.93;100063.53;4067673;86;21116;-81
2021/11/06 19:31:44;;;;;;;119.70;53.28;;;;;;;2.20;72.65;100055.70;4064701;86;21111;-81
2021/11/06 19:37:46;;;;;;;127.50;55.45;;;;;;;2.49;73.94;100042.23;4056740;86;21018;-81
2021/11/06 19:43:48;;;;;;;132.82;57.80;;;;;;;2.41;72.87;100026.70;4105107;85;21494;-81
2021/11/06 19:49:49;;;;;;;150.72;68.92;;;;;;;2.10;72.12;100028.87;4095344;85;21032;-81
2021/11/06 19:55:51;;;;;;;121.82;53.40;;;;;;;1.81;72.84;100021.47;4252186;82;21584;-81
2021/11/06 20:01:54;;;;;;;141.95;68.65;;;;;;;1.92;74.25;100023.73;4273570;82;21073;-81
2021/11/06 20:07:56;;;;;;;127.82;56.50;;;;;;;1.81;73.29;100030.92;4244134;82;21069;-80
2021/11/06 20:14:04;;;;;;;180.60;74.22;;;;;;;1.66;74.17;100017.66;4253294;82;21022;-82
2021/11/06 20:20:01;;;;;;;178.55;75.12;;;;;;;1.58;73.82;100010.45;4243071;82;21080;-80
2021/11/06 20:26:03;;;;;;;160.50;77.32;;;;;;;1.48;74.16;99999.00;4252176;82;21026;-80
2021/11/06 20:32:05;;;;;;;154.57;72.30;;;;;;;1.46;74.30;100010.63;4250365;82;21731;-80
2021/11/06 20:38:07;;;;;;;151.72;67.35;;;;;;;1.30;74.39;100014.64;4277462;82;21038;-81
2021/11/06 20:44:35;;;;;;;165.05;74.53;;;;;;;1.27;74.77;100008.45;4247272;82;21046;-81
2021/11/06 20:50:37;;;;;;;145.25;66.82;;;;;;;1.22;74.95;100014.71;4248766;79;21025;-80
2021/11/06 21:03:11;;;;;;;163.05;73.83;;;;;;;1.27;75.14;100000.36;4178761;84;21067;-81
2021/11/06 21:09:27;;;;;;;147.62;68.45;;;;;;;1.20;75.42;99998.58;4176891;83;21037;-81
2021/11/06 21:15:44;;;;;;;160.12;73.52;;;;;;;1.16;75.41;99993.52;4117905;85;21079;-81
2021/11/06 21:21:38;;;;;;;155.72;69.70;;;;;;;1.06;75.40;99978.27;4114490;85;21035;-81
2021/11/06 21:34:19;;;;;;;127.85;59.30;;;;;;;1.17;75.63;99986.48;4107928;86;21964;-82
2021/11/06 21:40:25;;;;;;;156.12;69.97;;;;;;;1.09;77.20;99984.95;4083745;86;21116;-81
2021/11/06 21:46:27;;;;;;;159.67;70.15;;;;;;;1.12;76.46;99979.80;4183313;84;21613;-83
2021/11/06 21:52:28;;;;;;;132.15;60.17;;;;;;;0.90;77.04;99975.48;4142821;84;21134;-81
2021/11/06 21:58:31;;;;;;;159.07;67.00;;;;;;;1.05;76.72;99971.81;4153907;84;21609;-81
2021/11/06 22:04:32;;;;;;;151.15;64.60;;;;;;;0.89;77.00;99972.52;4252902;82;21022;-81
2021/11/06 22:10:35;;;;;;;131.07;59.40;;;;;;;0.74;76.89;99955.19;4242246;82;21113;-81
2021/11/06 22:16:43;;;;;;;143.07;64.40;;;;;;;0.61;77.78;99956.43;4263986;82;21058;-80
2021/11/06 22:22:45;;;;;;;134.50;62.80;;;;;;;0.69;77.87;99942.33;4240261;81;21590;-81
2021/11/06 22:28:48;;;;;;;143.20;63.75;;;;;;;0.60;77.68;99939.98;4271694;82;21093;-81
2021/11/06 22:34:53;;;;;;;144.35;62.43;;;;;;;0.49;77.56;99928.53;4243151;82;21021;-81
2021/11/06 22:41:03;;;;;;;133.97;62.27;;;;;;;0.26;78.19;99904.27;4239567;82;20987;-81
2021/11/06 22:47:06;;;;;;;131.27;59.67;;;;;;;0.30;78.46;99889.16;4240143;82;21077;-81
2021/11/06 22:53:09;;;;;;;127.78;60.83;;;;;;;0.30;78.46;99889.16;4258022;82;21026;-81
2021/11/06 22:59:12;;;;;;;103.55;49.45;;;;;;;0.10;77.30;99890.17;4258896;82;21054;-81
2021/11/06 23:05:23;;;;;;;145.32;65.30;;;;;;;0.17;78.21;99869.11;4259280;82;21098;-81
2021/11/06 23:11:21;;;;;;;134.50;66.45;;;;;;;0.17;78.21;99869.11;4260309;82;22182;-81
2021/11/06 23:17:23;;;;;;;149.07;69.43;;;;;;;-0.01;77.96;99866.59;4270158;82;20986;-81
2021/11/06 23:23:27;;;;;;;124.27;59.90;;;;;;;-0.22;78.36;99846.33;4269564;82;21488;-81
2021/11/06 23:29:35;;;;;;;114.83;54.00;;;;;;;-0.26;78.34;99856.08;4183821;84;21046;-81
2021/11/06 23:42:21;;;;;;;134.75;64.32;;;;;;;-0.20;79.06;99820.48;4221559;83;21050;-82
2021/11/06 23:48:32;;;;;;;141.05;67.90;;;;;;;-0.33;80.08;99814.45;4240123;83;21003;-81
2021/11/06 23:54:42;;;;;;;133.27;62.55;;;;;;;-0.35;79.21;99806.66;4181726;83;21055;-81
